Wetterdaten: Woche 15.12.08 - 21.12.08 (KW51)
Datum Zeit Temperatur Luftfeuchte Luftdruck Niederschlag Wind Richtung Sonnenschein Solar Taupunkt Windchill Windben
15.12.2008 00:00 -1.3 C 95 % 1002.8 hPa 0.0 l/m 6.3 km/h (2 Bft) N-NW 0.00 h 0 W/m -1.9 C -3.3 C 10.1 km/h (2 Bft)
15.12.2008 01:00 -1.4 C 96 % 1003.4 hPa 0.0 l/m 3.9 km/h (1 Bft) N 0.00 h 0 W/m -2.0 C -2.2 C 6.8 km/h (2 Bft)
15.12.2008 02:00 -1.5 C 96 % 1004.0 hPa 0.0 l/m 5.1 km/h (1 Bft) N-NW 0.00 h 0 W/m -2.0 C -3.0 C 8.0 km/h (2 Bft)
15.12.2008 03:00 -1.6 C 97 % 1004.2 hPa 0.0 l/m 4.5 km/h (1 Bft) N-NW 0.00 h 0 W/m -2.1 C -2.8 C 7.1 km/h (2 Bft)
15.12.2008 04:00 -1.7 C 97 % 1004.8 hPa 0.0 l/m 4.5 km/h (1 Bft) N-NW 0.00 h 0 W/m -2.2 C -3.1 C 7.6 km/h (2 Bft)
15.12.2008 05:00 -1.8 C 97 % 1005.7 hPa 0.0 l/m 5.9 km/h (2 Bft) N-NW 0.00 h 0 W/m -2.2 C -3.8 C 9.1 km/h (2 Bft)
15.12.2008 06:00 -1.9 C 97 % 1006.7 hPa 0.0 l/m 6.3 km/h (2 Bft) N-NW 0.00 h 0 W/m -2.3 C -4.1 C 9.9 km/h (2 Bft)
15.12.2008 07:00 -1.9 C 97 % 1007.7 hPa 0.0 l/m 6.6 km/h (2 Bft) N-NW 0.00 h 0 W/m -2.4 C -4.3 C 10.3 km/h (2 Bft)
15.12.2008 08:00 -1.9 C 97 % 1008.8 hPa 0.0 l/m 5.5 km/h (1 Bft) N-NW 0.00 h 12 W/m -2.3 C -3.7 C 8.8 km/h (2 Bft)
15.12.2008 09:00 -1.7 C 97 % 1009.8 hPa 0.0 l/m 3.6 km/h (1 Bft) N-NW 0.00 h 34 W/m -2.1 C -2.4 C 6.7 km/h (2 Bft)
15.12.2008 10:00 -1.3 C 98 % 1010.5 hPa 0.0 l/m 3.2 km/h (1 Bft) NW 0.00 h 49 W/m -1.7 C -1.8 C 6.0 km/h (2 Bft)
15.12.2008 11:00 -0.9 C 98 % 1010.7 hPa 0.0 l/m 4.3 km/h (1 Bft) N-NW 0.00 h 98 W/m -1.2 C -1.9 C 6.9 km/h (2 Bft)
15.12.2008 12:00 -0.5 C 96 % 1010.6 hPa 0.0 l/m 3.3 km/h (1 Bft) N-NW 0.00 h 109 W/m -1.0 C -1.2 C 6.0 km/h (2 Bft)
15.12.2008 13:00 -0.4 C 95 % 1010.7 hPa 0.0 l/m 4.4 km/h (1 Bft) N 0.00 h 66 W/m -1.1 C -1.4 C 7.3 km/h (2 Bft)
15.12.2008 14:00 -0.3 C 94 % 1010.6 hPa 0.0 l/m 3.4 km/h (1 Bft) N 0.00 h 54 W/m -1.2 C -1.0 C 6.1 km/h (2 Bft)
15.12.2008 15:00 -0.1 C 93 % 1010.6 hPa 0.0 l/m 2.6 km/h (1 Bft) N-NW 0.55 h 67 W/m -1.1 C -0.4 C 5.1 km/h (1 Bft)
15.12.2008 16:00 -0.2 C 93 % 1011.4 hPa 0.0 l/m 3.9 km/h (1 Bft) N-NW 0.08 h 19 W/m -1.2 C -1.2 C 6.9 km/h (2 Bft)
15.12.2008 17:00 -0.4 C 94 % 1011.8 hPa 0.0 l/m 2.9 km/h (1 Bft) N-NW 0.00 h 0 W/m -1.3 C -0.8 C 5.7 km/h (1 Bft)
15.12.2008 18:00 -0.4 C 94 % 1012.3 hPa 0.0 l/m 3.0 km/h (1 Bft) N-NW 0.00 h 0 W/m -1.2 C -0.9 C 5.2 km/h (1 Bft)
15.12.2008 19:00 -0.4 C 95 % 1012.7 hPa 0.0 l/m 3.6 km/h (1 Bft) N 0.00 h 0 W/m -1.1 C -1.0 C 6.2 km/h (2 Bft)
15.12.2008 20:00 -0.3 C 96 % 1013.2 hPa 0.0 l/m 3.6 km/h (1 Bft) N 0.00 h 0 W/m -0.9 C -1.0 C 6.0 km/h (2 Bft)
15.12.2008 21:00 -0.3 C 96 % 1013.7 hPa 0.0 l/m 2.6 km/h (1 Bft) N 0.00 h 0 W/m -0.9 C -0.6 C 5.3 km/h (1 Bft)
15.12.2008 22:00 -0.4 C 97 % 1013.9 hPa 0.0 l/m 1.3 km/h (1 Bft) N-NW 0.00 h 0 W/m -0.9 C -0.5 C 2.9 km/h (1 Bft)
15.12.2008 23:00 -0.3 C 97 % 1014.1 hPa 0.0 l/m 2.0 km/h (1 Bft) N 0.00 h 0 W/m -0.8 C -0.4 C 4.1 km/h (1 Bft)
16.12.2008 00:00 -0.4 C 97 % 1013.8 hPa 0.0 l/m 1.2 km/h (1 Bft) N 0.00 h 0 W/m -0.8 C -0.4 C 2.8 km/h (1 Bft)
16.12.2008 01:00 -0.4 C 97 % 1014.1 hPa 0.0 l/m 1.1 km/h (1 Bft) N 0.00 h 0 W/m -0.8 C -0.4 C 2.5 km/h (1 Bft)
16.12.2008 02:00 -0.3 C 97 % 1014.1 hPa 0.0 l/m 1.9 km/h (1 Bft) N 0.00 h 0 W/m -0.7 C -0.5 C 3.7 km/h (1 Bft)
16.12.2008 03:00 -0.2 C 98 % 1013.9 hPa 0.0 l/m 1.4 km/h (1 Bft) N 0.00 h 0 W/m -0.6 C -0.3 C 3.1 km/h (1 Bft)
16.12.2008 04:00 -0.2 C 98 % 1013.7 hPa 0.0 l/m 1.9 km/h (1 Bft) N-NW 0.00 h 0 W/m -0.5 C -0.3 C 3.7 km/h (1 Bft)
16.12.2008 05:00 -0.2 C 98 % 1013.5 hPa 0.0 l/m 2.4 km/h (1 Bft) N 0.00 h 0 W/m -0.4 C -0.3 C 4.4 km/h (1 Bft)
16.12.2008 06:00 -0.1 C 98 % 1013.5 hPa 0.0 l/m 1.5 km/h (1 Bft) N-NW 0.00 h 0 W/m -0.4 C -0.1 C 3.5 km/h (1 Bft)
16.12.2008 07:00 -0.2 C 97 % 1013.4 hPa 0.0 l/m 2.5 km/h (1 Bft) N-NW 0.00 h 0 W/m -0.6 C -0.5 C 4.8 km/h (1 Bft)
16.12.2008 08:00 -0.1 C 97 % 1013.8 hPa 0.0 l/m 4.7 km/h (1 Bft) N-NW 0.00 h 18 W/m -0.5 C -1.4 C 7.2 km/h (2 Bft)
16.12.2008 09:00 0.3 C 95 % 1013.7 hPa 0.0 l/m 1.3 km/h (1 Bft) N-NW 0.03 h 63 W/m -0.4 C 0.2 C 3.0 km/h (1 Bft)
16.12.2008 10:00 0.6 C 90 % 1013.7 hPa 0.0 l/m 2.1 km/h (1 Bft) N-NW 0.00 h 89 W/m -0.8 C 0.4 C 4.3 km/h (1 Bft)
16.12.2008 11:00 0.9 C 88 % 1013.1 hPa 0.0 l/m 2.6 km/h (1 Bft) N-NW 0.00 h 101 W/m -0.9 C 0.5 C 5.0 km/h (1 Bft)
16.12.2008 12:00 1.5 C 86 % 1012.4 hPa 0.0 l/m 0.1 km/h (0 Bft) N-NW 0.00 h 87 W/m -0.6 C 1.5 C 0.9 km/h (0 Bft)
16.12.2008 13:00 1.7 C 86 % 1011.5 hPa 0.0 l/m 2.7 km/h (1 Bft) SO 0.00 h 72 W/m -0.4 C 1.1 C 4.4 km/h (1 Bft)
16.12.2008 14:00 1.5 C 90 % 1010.9 hPa 0.0 l/m 4.7 km/h (1 Bft) O-SO 0.22 h 97 W/m -0.0 C 0.4 C 7.3 km/h (2 Bft)
16.12.2008 15:00 1.6 C 90 % 1010.6 hPa 0.0 l/m 0.3 km/h (0 Bft) SO 0.00 h 21 W/m 0.1 C 1.6 C 0.9 km/h (0 Bft)
16.12.2008 16:00 1.5 C 90 % 1010.5 hPa 0.0 l/m 0.3 km/h (0 Bft) SO 0.00 h 11 W/m -0.0 C 1.5 C 0.8 km/h (0 Bft)
16.12.2008 17:00 1.3 C 90 % 1010.5 hPa 0.0 l/m 0.4 km/h (0 Bft) O-NO 0.00 h 0 W/m -0.2 C 1.3 C 1.7 km/h (1 Bft)
16.12.2008 18:00 1.1 C 89 % 1010.7 hPa 0.0 l/m 0.3 km/h (0 Bft) O-NO 0.00 h 0 W/m -0.4 C 1.1 C 1.5 km/h (1 Bft)
16.12.2008 19:00 0.9 C 88 % 1010.8 hPa 0.0 l/m 1.5 km/h (1 Bft) W-NW 0.00 h 0 W/m -0.8 C 0.9 C 3.3 km/h (1 Bft)
16.12.2008 20:00 0.7 C 90 % 1010.9 hPa 0.0 l/m 2.4 km/h (1 Bft) W-NW 0.00 h 0 W/m -0.8 C 0.4 C 4.2 km/h (1 Bft)
16.12.2008 21:00 0.5 C 91 % 1011.1 hPa 0.0 l/m 2.0 km/h (1 Bft) W 0.00 h 0 W/m -0.8 C 0.2 C 4.1 km/h (1 Bft)
16.12.2008 22:00 0.4 C 92 % 1011.4 hPa 0.0 l/m 1.2 km/h (1 Bft) NW 0.00 h 0 W/m -0.8 C 0.2 C 2.9 km/h (1 Bft)
16.12.2008 23:00 0.3 C 93 % 1011.4 hPa 0.0 l/m 2.9 km/h (1 Bft) N-NW 0.00 h 0 W/m -0.7 C -0.3 C 5.5 km/h (1 Bft)
17.12.2008 00:00 0.3 C 94 % 1011.4 hPa 0.0 l/m 8.2 km/h (2 Bft) W 0.00 h 0 W/m -0.6 C -2.4 C 12.1 km/h (2 Bft)
17.12.2008 01:00 0.3 C 93 % 1011.2 hPa 0.0 l/m 6.7 km/h (2 Bft) W 0.00 h 0 W/m -0.7 C -1.8 C 10.5 km/h (2 Bft)
17.12.2008 02:00 0.3 C 91 % 1011.3 hPa 0.0 l/m 6.6 km/h (2 Bft) W 0.00 h 0 W/m -1.0 C -1.7 C 10.3 km/h (2 Bft)
17.12.2008 03:00 0.3 C 90 % 1011.4 hPa 0.0 l/m 5.6 km/h (1 Bft) W 0.00 h 0 W/m -1.2 C -1.2 C 8.4 km/h (2 Bft)
17.12.2008 04:00 0.1 C 90 % 1011.3 hPa 0.0 l/m 4.8 km/h (1 Bft) W-SW 0.00 h 0 W/m -1.3 C -1.0 C 7.5 km/h (2 Bft)
17.12.2008 05:00 0.1 C 91 % 1011.3 hPa 0.2 l/m 2.3 km/h (1 Bft) W-SW 0.00 h 0 W/m -1.2 C -0.1 C 4.6 km/h (1 Bft)
17.12.2008 06:00 -0.1 C 93 % 1011.5 hPa 0.6 l/m 0.6 km/h (0 Bft) S 0.00 h 0 W/m -1.1 C -0.1 C 2.3 km/h (1 Bft)
17.12.2008 07:00 -0.1 C 94 % 1011.7 hPa 0.4 l/m 0.5 km/h (0 Bft) S-SO 0.00 h 0 W/m -1.0 C -0.1 C 1.4 km/h (1 Bft)
17.12.2008 08:00 -0.1 C 95 % 1012.1 hPa 0.8 l/m 0.0 km/h (0 Bft) N 0.00 h 5 W/m -0.8 C -0.1 C 0.0 km/h (0 Bft)
17.12.2008 09:00 0.2 C 96 % 1012.7 hPa 1.2 l/m 0.0 km/h (0 Bft) N 0.10 h 35 W/m -0.4 C 0.2 C 0.0 km/h (0 Bft)
17.12.2008 10:00 0.7 C 96 % 1013.2 hPa 0.6 l/m 0.0 km/h (0 Bft) N 0.02 h 92 W/m 0.2 C 0.7 C 0.0 km/h (0 Bft)
17.12.2008 11:00 0.4 C 95 % 1013.4 hPa 0.2 l/m 7.5 km/h (2 Bft) W 0.00 h 103 W/m -0.2 C -1.8 C 12.0 km/h (2 Bft)
17.12.2008 12:00 0.4 C 94 % 1013.5 hPa 0.2 l/m 7.0 km/h (2 Bft) W-SW 0.00 h 75 W/m -0.4 C -1.7 C 11.3 km/h (2 Bft)
17.12.2008 13:00 0.4 C 95 % 1013.7 hPa 0.2 l/m 4.3 km/h (1 Bft) W-SW 0.00 h 67 W/m -0.3 C -0.7 C 7.9 km/h (2 Bft)
17.12.2008 14:00 0.4 C 96 % 1013.6 hPa 0.4 l/m 4.4 km/h (1 Bft) W-SW 0.00 h 66 W/m -0.2 C -0.6 C 7.6 km/h (2 Bft)
17.12.2008 15:00 0.4 C 95 % 1014.1 hPa 0.2 l/m 2.9 km/h (1 Bft) W-SW 0.00 h 24 W/m -0.3 C -0.1 C 5.1 km/h (1 Bft)
17.12.2008 16:00 0.2 C 95 % 1014.7 hPa 0.2 l/m 0.2 km/h (0 Bft) SW 0.00 h 11 W/m -0.5 C 0.2 C 0.4 km/h (0 Bft)
17.12.2008 17:00 0.1 C 96 % 1015.4 hPa 0.4 l/m 0.0 km/h (0 Bft) N 0.00 h 0 W/m -0.5 C 0.1 C 0.0 km/h (0 Bft)
17.12.2008 18:00 -0.0 C 96 % 1016.0 hPa 0.0 l/m 0.0 km/h (0 Bft) N 0.00 h 0 W/m -0.6 C -0.0 C 0.0 km/h (0 Bft)
17.12.2008 19:00 -0.1 C 97 % 1016.7 hPa 0.2 l/m 0.0 km/h (0 Bft) N 0.00 h 0 W/m -0.5 C -0.1 C 0.0 km/h (0 Bft)
17.12.2008 20:00 -0.1 C 97 % 1017.3 hPa 0.0 l/m 0.0 km/h (0 Bft) N 0.00 h 0 W/m -0.5 C -0.1 C 0.0 km/h (0 Bft)
17.12.2008 21:00 -0.1 C 97 % 1017.8 hPa 0.0 l/m 0.0 km/h (0 Bft) N 0.00 h 0 W/m -0.5 C -0.1 C 0.0 km/h (0 Bft)
17.12.2008 22:00 -0.2 C 97 % 1018.1 hPa 0.0 l/m 0.0 km/h (0 Bft) N 0.00 h 0 W/m -0.6 C -0.2 C 0.0 km/h (0 Bft)
17.12.2008 23:00 -0.2 C 97 % 1018.5 hPa 0.0 l/m 0.0 km/h (0 Bft) N 0.00 h 0 W/m -0.6 C -0.2 C 0.0 km/h (0 Bft)
18.12.2008 00:00 -0.2 C 97 % 1018.6 hPa 0.0 l/m 0.0 km/h (0 Bft) N 0.00 h 0 W/m -0.7 C -0.2 C 0.0 km/h (0 Bft)
18.12.2008 01:00 -0.4 C 96 % 1018.6 hPa 0.0 l/m 0.0 km/h (0 Bft) N 0.00 h 0 W/m -0.9 C -0.4 C 0.0 km/h (0 Bft)
18.12.2008 02:00 -0.5 C 95 % 1018.8 hPa 0.0 l/m 0.0 km/h (0 Bft) N 0.00 h 0 W/m -1.2 C -0.5 C 0.0 km/h (0 Bft)
18.12.2008 03:00 -0.6 C 95 % 1019.2 hPa 0.0 l/m 0.0 km/h (0 Bft) N 0.00 h 0 W/m -1.3 C -0.6 C 0.0 km/h (0 Bft)
18.12.2008 04:00 -0.4 C 95 % 1019.4 hPa 0.0 l/m 0.0 km/h (0 Bft) N 0.00 h 0 W/m -1.1 C -0.4 C 0.0 km/h (0 Bft)
18.12.2008 05:00 -0.3 C 95 % 1020.0 hPa 0.2 l/m 0.0 km/h (0 Bft) N 0.00 h 0 W/m -1.0 C -0.3 C 0.0 km/h (0 Bft)
18.12.2008 06:00 -0.3 C 96 % 1020.7 hPa 0.4 l/m 0.0 km/h (0 Bft) N 0.00 h 0 W/m -0.9 C -0.3 C 0.0 km/h (0 Bft)
18.12.2008 07:00 -0.4 C 96 % 1021.4 hPa 0.2 l/m 0.0 km/h (0 Bft) N 0.00 h 0 W/m -1.0 C -0.4 C 0.0 km/h (0 Bft)
18.12.2008 08:00 -0.4 C 96 % 1021.7 hPa 0.6 l/m 0.0 km/h (0 Bft) N 0.00 h 10 W/m -0.9 C -0.4 C 0.0 km/h (0 Bft)
18.12.2008 09:00 -0.0 C 97 % 1021.8 hPa 0.2 l/m 0.0 km/h (0 Bft) N 0.00 h 10 W/m -0.5 C -0.0 C 0.0 km/h (0 Bft)
18.12.2008 10:00 0.2 C 97 % 1022.4 hPa 0.0 l/m 0.0 km/h (0 Bft) N 0.00 h 17 W/m -0.2 C 0.2 C 0.0 km/h (0 Bft)
18.12.2008 11:00 0.6 C 97 % 1022.8 hPa 0.0 l/m 1.4 km/h (1 Bft) W 0.00 h 22 W/m 0.2 C 0.4 C 2.8 km/h (1 Bft)
18.12.2008 12:00 0.9 C 96 % 1022.9 hPa 0.0 l/m 1.3 km/h (1 Bft) W 0.00 h 52 W/m 0.3 C 0.8 C 3.0 km/h (1 Bft)
18.12.2008 13:00 1.1 C 95 % 1022.7 hPa 0.0 l/m 2.1 km/h (1 Bft) W-NW 0.00 h 90 W/m 0.5 C 1.1 C 4.0 km/h (1 Bft)
18.12.2008 14:00 1.0 C 94 % 1022.4 hPa 0.0 l/m 2.1 km/h (1 Bft) W-NW 0.00 h 87 W/m 0.2 C 0.9 C 4.0 km/h (1 Bft)
18.12.2008 15:00 1.2 C 93 % 1022.9 hPa 0.0 l/m 1.0 km/h (0 Bft) SO 0.00 h 45 W/m 0.3 C 1.2 C 1.6 km/h (1 Bft)
18.12.2008 16:00 1.0 C 93 % 1023.5 hPa 0.0 l/m 0.0 km/h (0 Bft) N 0.00 h 11 W/m 0.0 C 1.0 C 0.0 km/h (0 Bft)
18.12.2008 17:00 0.8 C 94 % 1023.6 hPa 0.0 l/m 0.0 km/h (0 Bft) N 0.00 h 0 W/m -0.1 C 0.8 C 0.3 km/h (0 Bft)
18.12.2008 18:00 0.8 C 94 % 1024.1 hPa 0.0 l/m 0.8 km/h (0 Bft) SO 0.00 h 0 W/m 0.0 C 0.8 C 1.5 km/h (1 Bft)
18.12.2008 19:00 0.8 C 95 % 1024.6 hPa 0.0 l/m 1.0 km/h (0 Bft) SO 0.00 h 0 W/m 0.1 C 0.7 C 2.4 km/h (1 Bft)
18.12.2008 20:00 0.8 C 95 % 1024.6 hPa 0.0 l/m 0.1 km/h (0 Bft) W-SW 0.00 h 0 W/m 0.2 C 0.8 C 0.7 km/h (0 Bft)
18.12.2008 21:00 0.8 C 96 % 1024.6 hPa 0.0 l/m 0.2 km/h (0 Bft) W 0.00 h 0 W/m 0.2 C 0.8 C 0.6 km/h (0 Bft)
18.12.2008 22:00 0.7 C 96 % 1025.1 hPa 0.0 l/m 1.3 km/h (1 Bft) W 0.00 h 0 W/m 0.1 C 0.6 C 2.7 km/h (1 Bft)
18.12.2008 23:00 0.5 C 96 % 1025.2 hPa 0.0 l/m 1.3 km/h (1 Bft) N-NW 0.00 h 0 W/m -0.1 C 0.4 C 2.9 km/h (1 Bft)
19.12.2008 00:00 0.3 C 96 % 1025.3 hPa 0.0 l/m 1.0 km/h (0 Bft) N-NW 0.00 h 0 W/m -0.2 C 0.3 C 2.2 km/h (1 Bft)
19.12.2008 01:00 0.3 C 96 % 1024.9 hPa 0.0 l/m 0.1 km/h (0 Bft) N-NW 0.00 h 0 W/m -0.2 C 0.3 C 0.5 km/h (0 Bft)
19.12.2008 02:00 0.5 C 96 % 1024.8 hPa 0.0 l/m 2.6 km/h (1 Bft) S-SO 0.00 h 0 W/m -0.1 C 0.1 C 4.7 km/h (1 Bft)
19.12.2008 03:00 0.4 C 96 % 1024.9 hPa 0.0 l/m 1.3 km/h (1 Bft) SW 0.00 h 0 W/m -0.1 C 0.3 C 3.2 km/h (1 Bft)
19.12.2008 04:00 0.4 C 97 % 1025.0 hPa 0.0 l/m 2.7 km/h (1 Bft) S 0.00 h 0 W/m -0.0 C 0.1 C 5.4 km/h (1 Bft)
19.12.2008 05:00 0.5 C 97 % 1025.1 hPa 0.0 l/m 4.1 km/h (1 Bft) S 0.00 h 0 W/m 0.1 C -0.3 C 7.6 km/h (2 Bft)
19.12.2008 06:00 0.6 C 97 % 1025.4 hPa 0.0 l/m 1.6 km/h (1 Bft) SW 0.00 h 0 W/m 0.2 C 0.5 C 3.8 km/h (1 Bft)
19.12.2008 07:00 0.7 C 97 % 1025.7 hPa 0.0 l/m 2.4 km/h (1 Bft) SW 0.00 h 0 W/m 0.3 C 0.6 C 5.2 km/h (1 Bft)
19.12.2008 08:00 1.0 C 97 % 1026.2 hPa 0.2 l/m 3.0 km/h (1 Bft) S-SW 0.00 h 18 W/m 0.6 C 0.7 C 5.5 km/h (1 Bft)
19.12.2008 09:00 1.5 C 97 % 1026.1 hPa 0.0 l/m 4.2 km/h (1 Bft) S-SO 0.15 h 48 W/m 1.1 C 0.7 C 7.1 km/h (2 Bft)
19.12.2008 10:00 1.8 C 97 % 1026.5 hPa 0.0 l/m 1.8 km/h (1 Bft) S-SW 0.00 h 36 W/m 1.4 C 1.8 C 3.8 km/h (1 Bft)
19.12.2008 11:00 2.2 C 97 % 1026.6 hPa 0.0 l/m 3.6 km/h (1 Bft) S-SW 0.00 h 51 W/m 1.7 C 1.6 C 6.8 km/h (2 Bft)
19.12.2008 12:00 2.5 C 95 % 1026.4 hPa 0.0 l/m 4.6 km/h (1 Bft) S-SO 0.00 h 51 W/m 1.8 C 1.5 C 8.2 km/h (2 Bft)
19.12.2008 13:00 2.8 C 95 % 1026.3 hPa 0.0 l/m 5.2 km/h (1 Bft) S-SO 0.12 h 90 W/m 2.0 C 1.6 C 9.2 km/h (2 Bft)
19.12.2008 14:00 3.1 C 95 % 1026.3 hPa 0.0 l/m 2.4 km/h (1 Bft) S 0.00 h 48 W/m 2.4 C 3.0 C 4.8 km/h (1 Bft)
19.12.2008 15:00 3.0 C 94 % 1026.6 hPa 0.0 l/m 3.1 km/h (1 Bft) S-SO 0.00 h 26 W/m 2.1 C 2.7 C 5.6 km/h (1 Bft)
19.12.2008 16:00 2.7 C 94 % 1027.0 hPa 0.0 l/m 2.4 km/h (1 Bft) SO 0.00 h 5 W/m 1.8 C 2.5 C 4.4 km/h (1 Bft)
19.12.2008 17:00 2.8 C 94 % 1027.5 hPa 0.0 l/m 3.7 km/h (1 Bft) S-SO 0.00 h 0 W/m 1.9 C 2.1 C 6.9 km/h (2 Bft)
19.12.2008 18:00 2.8 C 94 % 1028.3 hPa 0.0 l/m 3.2 km/h (1 Bft) SO 0.00 h 0 W/m 1.9 C 2.3 C 4.8 km/h (1 Bft)
19.12.2008 19:00 3.2 C 96 % 1029.0 hPa 0.0 l/m 2.3 km/h (1 Bft) SO 0.00 h 0 W/m 2.6 C 3.0 C 4.6 km/h (1 Bft)
19.12.2008 20:00 4.0 C 96 % 1029.7 hPa 0.0 l/m 5.9 km/h (2 Bft) W-NW 0.00 h 0 W/m 3.4 C 2.7 C 8.9 km/h (2 Bft)
19.12.2008 21:00 4.1 C 96 % 1029.9 hPa 0.0 l/m 3.2 km/h (1 Bft) W-NW 0.00 h 0 W/m 3.4 C 3.6 C 5.2 km/h (1 Bft)
19.12.2008 22:00 3.0 C 94 % 1030.3 hPa 0.0 l/m 2.4 km/h (1 Bft) SO 0.00 h 0 W/m 2.2 C 2.7 C 4.6 km/h (1 Bft)
19.12.2008 23:00 2.8 C 95 % 1030.8 hPa 0.0 l/m 3.9 km/h (1 Bft) S-SO 0.00 h 0 W/m 2.1 C 2.1 C 6.9 km/h (2 Bft)
20.12.2008 00:00 2.6 C 95 % 1030.8 hPa 0.0 l/m 1.9 km/h (1 Bft) S-SO 0.00 h 0 W/m 1.9 C 2.4 C 3.7 km/h (1 Bft)
20.12.2008 01:00 2.4 C 95 % 1030.9 hPa 0.0 l/m 1.7 km/h (1 Bft) SO 0.00 h 0 W/m 1.7 C 2.3 C 3.2 km/h (1 Bft)
20.12.2008 02:00 2.4 C 96 % 1031.2 hPa 0.0 l/m 2.5 km/h (1 Bft) S-SO 0.00 h 0 W/m 1.8 C 2.1 C 4.6 km/h (1 Bft)
20.12.2008 03:00 2.7 C 96 % 1031.1 hPa 0.0 l/m 1.4 km/h (1 Bft) S 0.00 h 0 W/m 2.1 C 2.6 C 3.2 km/h (1 Bft)
20.12.2008 04:00 2.3 C 96 % 1031.2 hPa 0.0 l/m 1.7 km/h (1 Bft) S-SO 0.00 h 0 W/m 1.8 C 2.3 C 3.3 km/h (1 Bft)
20.12.2008 05:00 2.3 C 97 % 1031.3 hPa 0.0 l/m 2.5 km/h (1 Bft) S-SO 0.00 h 0 W/m 1.8 C 2.0 C 4.5 km/h (1 Bft)
20.12.2008 06:00 2.5 C 97 % 1031.3 hPa 0.0 l/m 1.6 km/h (1 Bft) S 0.00 h 0 W/m 2.1 C 2.4 C 3.5 km/h (1 Bft)
20.12.2008 07:00 2.6 C 97 % 1031.1 hPa 0.0 l/m 3.4 km/h (1 Bft) S-SW 0.00 h 0 W/m 2.1 C 2.1 C 6.1 km/h (2 Bft)
20.12.2008 08:00 2.7 C 97 % 1031.0 hPa 0.0 l/m 4.9 km/h (1 Bft) S-SW 0.00 h 12 W/m 2.3 C 1.8 C 8.6 km/h (2 Bft)
20.12.2008 09:00 3.2 C 96 % 1031.0 hPa 0.0 l/m 5.8 km/h (2 Bft) S-SO 0.00 h 44 W/m 2.6 C 1.8 C 10.1 km/h (2 Bft)
20.12.2008 10:00 4.0 C 92 % 1031.3 hPa 0.0 l/m 4.1 km/h (1 Bft) S 0.00 h 55 W/m 2.8 C 3.4 C 7.5 km/h (2 Bft)
20.12.2008 11:00 4.5 C 88 % 1031.1 hPa 0.0 l/m 3.8 km/h (1 Bft) S-SW 0.00 h 56 W/m 2.7 C 4.0 C 7.0 km/h (2 Bft)
20.12.2008 12:00 4.8 C 86 % 1030.8 hPa 0.0 l/m 3.2 km/h (1 Bft) S-SW 0.00 h 47 W/m 2.7 C 4.5 C 6.1 km/h (2 Bft)
20.12.2008 13:00 5.1 C 84 % 1030.3 hPa 0.0 l/m 4.4 km/h (1 Bft) S 0.00 h 52 W/m 2.7 C 4.5 C 7.9 km/h (2 Bft)
20.12.2008 14:00 5.0 C 86 % 1030.2 hPa 0.0 l/m 4.5 km/h (1 Bft) S 0.00 h 42 W/m 2.9 C 4.3 C 8.7 km/h (2 Bft)
20.12.2008 15:00 4.9 C 88 % 1030.0 hPa 0.0 l/m 4.2 km/h (1 Bft) SW 0.00 h 22 W/m 3.1 C 4.4 C 7.2 km/h (2 Bft)
20.12.2008 16:00 5.1 C 88 % 1030.3 hPa 0.0 l/m 5.0 km/h (1 Bft) SW 0.00 h 5 W/m 3.2 C 4.3 C 7.9 km/h (2 Bft)
20.12.2008 17:00 4.8 C 90 % 1030.7 hPa 0.4 l/m 2.7 km/h (1 Bft) S 0.00 h 0 W/m 3.4 C 4.6 C 5.1 km/h (1 Bft)
20.12.2008 18:00 4.7 C 93 % 1031.1 hPa 0.6 l/m 3.1 km/h (1 Bft) S-SW 0.00 h 0 W/m 3.6 C 4.5 C 5.5 km/h (1 Bft)
20.12.2008 19:00 4.5 C 94 % 1031.1 hPa 0.2 l/m 3.7 km/h (1 Bft) S-SO 0.00 h 0 W/m 3.6 C 3.9 C 6.1 km/h (2 Bft)
20.12.2008 20:00 4.7 C 96 % 1031.6 hPa 0.0 l/m 2.1 km/h (1 Bft) SO 0.00 h 0 W/m 4.1 C 4.6 C 3.9 km/h (1 Bft)
20.12.2008 21:00 5.0 C 97 % 1031.6 hPa 0.0 l/m 2.0 km/h (1 Bft) S-SO 0.00 h 0 W/m 4.5 C 4.9 C 3.8 km/h (1 Bft)
20.12.2008 22:00 5.3 C 97 % 1031.9 hPa 0.0 l/m 3.2 km/h (1 Bft) S 0.00 h 0 W/m 4.9 C 5.0 C 5.9 km/h (2 Bft)
20.12.2008 23:00 5.2 C 96 % 1032.2 hPa 0.0 l/m 3.4 km/h (1 Bft) S-SW 0.00 h 0 W/m 4.6 C 4.9 C 6.3 km/h (2 Bft)
21.12.2008 00:00 4.9 C 96 % 1032.6 hPa 0.0 l/m 5.4 km/h (1 Bft) S 0.00 h 0 W/m 4.3 C 4.0 C 9.6 km/h (2 Bft)
21.12.2008 01:00 5.0 C 95 % 1032.3 hPa 0.0 l/m 5.5 km/h (1 Bft) S 0.00 h 0 W/m 4.2 C 3.9 C 10.5 km/h (2 Bft)
21.12.2008 02:00 5.3 C 95 % 1032.5 hPa 0.0 l/m 2.9 km/h (1 Bft) W-SW 0.00 h 0 W/m 4.6 C 5.1 C 5.2 km/h (1 Bft)
21.12.2008 03:00 5.3 C 95 % 1032.8 hPa 0.0 l/m 3.3 km/h (1 Bft) S-SW 0.00 h 0 W/m 4.6 C 5.1 C 6.3 km/h (2 Bft)
21.12.2008 04:00 5.4 C 95 % 1032.8 hPa 0.0 l/m 3.2 km/h (1 Bft) W-SW 0.00 h 0 W/m 4.7 C 5.1 C 5.8 km/h (2 Bft)
21.12.2008 05:00 5.7 C 95 % 1032.8 hPa 0.0 l/m 2.7 km/h (1 Bft) SW 0.00 h 0 W/m 5.0 C 5.5 C 5.1 km/h (1 Bft)
21.12.2008 06:00 6.1 C 94 % 1033.2 hPa 0.0 l/m 1.1 km/h (1 Bft) S 0.00 h 0 W/m 5.2 C 6.1 C 2.5 km/h (1 Bft)
21.12.2008 07:00 6.2 C 93 % 1033.6 hPa 0.0 l/m 0.1 km/h (0 Bft) S-SW 0.00 h 0 W/m 5.2 C 6.2 C 1.3 km/h (1 Bft)
21.12.2008 08:00 6.1 C 93 % 1034.0 hPa 0.0 l/m 0.7 km/h (0 Bft) S 0.00 h 6 W/m 5.1 C 6.1 C 2.2 km/h (1 Bft)
21.12.2008 09:00 6.0 C 93 % 1034.5 hPa 0.0 l/m 1.3 km/h (1 Bft) S-SO 0.00 h 13 W/m 4.9 C 5.8 C 3.0 km/h (1 Bft)
21.12.2008 10:00 6.2 C 93 % 1034.9 hPa 0.0 l/m 2.7 km/h (1 Bft) S-SO 0.00 h 23 W/m 5.1 C 6.0 C 5.1 km/h (1 Bft)
21.12.2008 11:00 6.5 C 91 % 1035.0 hPa 0.0 l/m 3.0 km/h (1 Bft) S-SO 0.00 h 26 W/m 5.2 C 6.3 C 5.8 km/h (2 Bft)
21.12.2008 12:00 6.7 C 90 % 1035.0 hPa 0.0 l/m 2.2 km/h (1 Bft) SW 0.00 h 34 W/m 5.2 C 6.6 C 4.4 km/h (1 Bft)
21.12.2008 13:00 7.0 C 90 % 1034.6 hPa 0.0 l/m 1.6 km/h (1 Bft) S 0.00 h 35 W/m 5.5 C 7.0 C 3.9 km/h (1 Bft)
21.12.2008 14:00 6.9 C 90 % 1034.4 hPa 0.0 l/m 2.6 km/h (1 Bft) S 0.00 h 20 W/m 5.4 C 6.8 C 5.6 km/h (1 Bft)
21.12.2008 15:00 6.8 C 90 % 1034.7 hPa 0.0 l/m 3.1 km/h (1 Bft) S-SW 0.00 h 10 W/m 5.3 C 6.7 C 5.8 km/h (2 Bft)
21.12.2008 16:00 6.8 C 90 % 1035.2 hPa 0.0 l/m 2.5 km/h (1 Bft) S 0.00 h 5 W/m 5.3 C 6.6 C 5.1 km/h (1 Bft)
21.12.2008 17:00 6.8 C 91 % 1035.7 hPa 0.0 l/m 1.3 km/h (1 Bft) W-SW 0.00 h 0 W/m 5.5 C 6.8 C 3.4 km/h (1 Bft)
21.12.2008 18:00 6.8 C 92 % 1036.1 hPa 0.0 l/m 1.6 km/h (1 Bft) W-SW 0.00 h 0 W/m 5.6 C 6.8 C 3.2 km/h (1 Bft)
21.12.2008 19:00 6.9 C 91 % 1036.3 hPa 0.0 l/m 2.1 km/h (1 Bft) SO 0.00 h 0 W/m 5.5 C 6.8 C 3.8 km/h (1 Bft)
21.12.2008 20:00 6.8 C 91 % 1036.4 hPa 0.0 l/m 1.6 km/h (1 Bft) O-SO 0.00 h 0 W/m 5.4 C 6.7 C 3.3 km/h (1 Bft)
21.12.2008 21:00 6.3 C 91 % 1036.4 hPa 0.0 l/m 4.9 km/h (1 Bft) O-SO 0.00 h 0 W/m 5.0 C 5.7 C 6.5 km/h (2 Bft)
21.12.2008 22:00 6.1 C 91 % 1036.0 hPa 0.0 l/m 3.3 km/h (1 Bft) S-SO 0.00 h 0 W/m 4.8 C 5.7 C 5.0 km/h (1 Bft)
21.12.2008 23:00 6.0 C 92 % 1036.0 hPa 0.0 l/m 1.2 km/h (1 Bft) SO 0.00 h 0 W/m 4.7 C 6.0 C 2.4 km/h (1 Bft)
Min-Datum _ 15.12.08 20.12.08 15.12.08 - 15.12.08 - - - 15.12.08 15.12.08 15.12.08
_ Min-Zeit 08:00 12:57 00:00 - 00:50 - - - 07:33 07:57 04:08
Minimum _ -2.1 C 84 % 1002.4 hPa - 0.0 km/h (0 Bft) - - - -2.4 C -5.8 C 0.0 km/h (0 Bft)
Max-Datum _ 21.12.08 21.12.08 21.12.08 17.12.08 17.12.08 - 15.12.08 19.12.08 21.12.08 21.12.08 17.12.08
_ Max-Zeit 13:35 01:27 19:15 09:00 11:53 - 15:20 13:51 18:24 13:35 11:53
Maximum _ 7.1 C 99 % 1036.5 hPa 1.2 l/m 17.4 km/h
W (3 Bft)
- 0.02 h 192 W/m 5.7 C 7.1 C 27.8 km/h
W-SW (4 Bft)
Durchschnitt _ 1.7 C 94 % 1021.4 hPa #8.8 l/m 2.5 km/h (1 Bft) N-NW #1:16 h 44 W/m 0.9 C 1.3 C 4.5 km/h (1 Bft)
© Kaiko 2008